Create Custom Reports and Graphics: Custom Report

Lindcove R.E.C.

Current Conditions

5/16/21 4:15 AM (-07:00)
Updated Every 15 Minutes
Temp 56.0 °F   3.9
Upper Temp 56.4 °F   4.5
Temp Inversion 0.4 °F   0.6
RH 66 %   8
Dew Pt 44.7 °F   0.3
Wind Dir S | 177 °
Wind Spd 3.3 mph   1.6
Wind Gust 7.2 mph   1.1
BatVolt 12.6 V   0.0

Today & Yesterday

Lindcove R.E.C.

5/16/21 4:15 AM (-07:00)
Updated Every 15 Minutes
Daily Max Temp 60.3 °F   4.8
Time of Max Temp 0102
Daily Min Temp 55.6 °F   3.6
Time of Min Temp 0352
Upper Max Temp 60.6 °F   7.2
Upper Min Temp 56.0 °F   4.4
Daily Max Wind 11.6 mph   5.5
Time of Max Wind 0112
Max Wind Dir S | 178 °
Daily Rain 0.00 In
Yesterday's Max Temp 84.4 °F
Yesterday’s Min Temp 55.1 °F
Yesterday's Max Wind 15.1 mph
Yesterday's Rainfall 0.00 In
Monthly Rain 0.00 In
Seasonal Rainfall 4.85 In

Daily Meteorological Summary

Last 30 Days

Daily Data | America/Los_Angeles
as of 5/16/21 4:19 AM PDT
Date Daily Max Temp (°F) Time of Max Temp Daily Min Temp (°F) Time of Min Temp Daily Rain (In) Seasonal Rainfall (In) Wind Spd (mph) Daily Max Wind (mph) Time of Max Wind Max Wind Dir (°) Dew Pt (°F) Max RH (%) Min RH (%) Upper Max Temp (°F) Max Upper Temp Time Upper Min Temp (°F) Min Upper Temp Time Max Temp Inversion (°F) Time of Max Temp Inversion Min Temp Inversion (°F) Time of Min Temp Inversion Max 1 Min Rain (In) Max 1 Min Rain Time Max 15 Min Rain (In) Max 15 Min Precip Time Max 60 Min Rain (In) Max 60 Min Rain Time Storm Total (In) Bat Volt Min Day (V)
5/15/21 84.4 1515 55.1 0633 0.00 4.85 2.6 15.1 1234 SW | 226 44.0 69 21 79.9 1430 56.8 0620 6.2 2216 -7.3 1221 - - - - - - - 12.4
5/14/21 96.6 1606 52.8 0609 0.00 4.85 2.0 11.6 1036 WSW | 249 42.9 76 9 92.7 1557 57.6 0558 12.8 0133 -7.4 1124 - - - - - - - 12.5
5/13/21 98.3 1556 53.1 0556 0.00 4.85 2.5 14.9 1717 WNW | 302 42.8 76 11 94.6 1744 57.9 0608 14.0 0047 -6.8 1411 - - - - - - - 12.5
5/12/21 100.0 1554 52.6 0556 0.00 4.85 2.1 13.2 1021 SW | 222 39.3 71 7 96.0 1616 59.8 0525 16.8 0011 -6.6 1136 - - - - - - - 12.4
5/11/21 95.8 1547 54.1 0543 0.00 4.85 2.1 12.5 1754 WNW | 294 42.8 87 11 93.1 1639 61.4 0403 15.8 2139 -6.4 1044 - - - - - - - 12.4
5/10/21 90.9 1551 50.0 0548 0.00 4.85 2.4 14.7 1100 WSW | 238 44.5 78 16 88.3 1701 56.2 0441 11.7 0210 -5.5 1420 - - - - - - - 12.5
5/9/21 90.2 1525 51.0 0606 0.00 4.85 2.4 18.6 1121 SW | 223 41.5 77 15 86.1 1605 56.0 0551 12.6 0403 -7.3 1414 - - - - - - - 12.5
5/8/21 88.0 1557 48.7 0548 0.00 4.85 2.4 17.5 1021 S | 180 42.9 80 18 83.3 1556 53.5 0621 10.5 2348 -6.6 1451 - - - - - - - 12.4
5/7/21 86.5 1524 54.2 0059 0.00 4.85 2.5 17.1 1545 WNW | 290 42.2 73 15 81.6 1631 56.0 0624 10.1 2342 -7.2 1346 - - - - - - - 12.4
5/6/21 94.2 1523 56.9 0610 0.00 4.85 2.4 13.6 1659 W | 262 44.3 68 12 91.0 1646 62.2 0559 14.0 0249 -6.5 1315 - - - - - - - 12.5
5/5/21 99.1 1548 54.7 0610 0.00 4.85 2.1 11.0 1102 WSW | 238 45.5 85 11 95.9 1702 60.8 0606 13.9 2115 -6.3 1353 - - - - - - - 12.5
5/4/21 92.9 1525 52.9 0551 0.00 4.85 2.1 12.7 1145 SW | 235 44.1 75 14 90.0 1637 58.0 0612 13.4 2255 -6.9 1138 - - - - - - - 12.4
5/3/21 88.9 1544 49.7 0620 0.00 4.85 2.6 17.1 1057 S | 191 41.9 74 18 85.6 1613 54.7 0614 11.0 2136 -8.1 1422 - - - - - - - 12.4
5/2/21 83.3 1607 47.4 0609 0.00 4.85 2.8 16.2 1651 NW | 308 43.8 83 24 80.6 1729 50.8 0629 9.2 0002 -7.2 1354 - - - - - - - 12.4
5/1/21 90.2 1515 55.9 0532 0.00 4.85 2.3 14.0 1532 WNW | 292 42.5 74 9 86.0 1607 58.2 0704 9.5 2134 -7.3 1503 - - - - - - - 12.4
4/30/21 97.1 1500 50.5 0616 0.00 4.85 1.9 12.3 1128 SSW | 213 44.3 77 13 93.1 1542 56.5 0626 15.7 0133 -7.1 1159 - - - - - - - 12.4
4/29/21 95.1 1539 46.9 0602 0.00 4.85 1.5 9.2 1221 WSW | 250 40.9 82 10 91.1 1642 51.2 0630 13.1 2246 -6.8 1449 - - - - - - - 12.4
4/28/21 85.4 1530 42.4 0550 0.00 4.85 1.6 11.2 1448 WNW | 289 38.4 89 14 81.2 1750 47.2 0629 12.4 2055 -7.1 1433 - - - - - - - 12.4
4/27/21 73.9 1538 41.9 0635 0.00 4.85 2.2 11.8 0942 S | 181 39.2 90 21 71.0 1729 43.9 0643 10.4 2124 -6.3 1234 - - - - - - 0.10 12.4
4/26/21 70.6 1429 46.5 0006 0.09 4.85 1.9 14.7 1611 NW | 314 44.8 94 31 66.7 1704 50.0 0552 9.3 2213 -7.1 1430 0.01 0839 0.01 0853 0.03 0805 0.10 12.4
4/25/21 64.8 1403 51.1 2305 0.01 4.76 2.8 14.7 1740 ENE | 73 41.3 89 36 63.7 1331 51.9 2309 5.7 0233 -2.6 1119 0.01 2355 0.01 0009 0.01 0054 - 12.4
4/24/21 79.4 1537 48.2 0556 0.00 4.75 2.4 15.1 0956 SW | 222 42.9 88 21 75.3 1537 51.0 0608 7.7 2246 -6.8 1341 - - - - - - - 12.4
4/23/21 82.6 1502 46.6 0621 0.00 4.75 1.8 10.7 1041 SSW | 209 45.8 92 26 79.0 1727 50.1 0614 10.0 2213 -6.6 1216 - - - - - - - 12.4
4/22/21 82.8 1607 53.0 0058 0.00 4.75 2.0 12.7 1351 W | 270 45.6 79 23 79.6 1627 55.7 0715 9.7 2220 -6.5 1500 - - - - - - - 12.5
4/21/21 76.7 1606 47.0 0412 0.00 4.75 2.0 12.7 1737 W | 271 44.0 88 26 73.8 1657 50.5 0336 7.8 2356 -6.4 1406 - - - - - - - 12.4
4/20/21 86.3 1554 47.7 0638 0.00 4.75 2.4 19.3 2124 WNW | 288 41.1 84 13 83.6 1711 51.2 0627 12.0 0337 -6.1 1244 - - - - - - - 12.4
4/19/21 90.2 1605 45.5 0559 0.00 4.75 1.9 12.5 1717 WNW | 288 38.0 73 10 87.1 1706 52.0 0548 16.4 0607 -6.0 1432 - - - - - - - 12.4
4/18/21 89.5 1541 46.2 0618 0.00 4.75 2.1 12.9 1448 WNW | 299 35.8 81 10 85.3 1657 50.0 0643 14.4 0043 -7.1 1218 - - - - - - - 12.4
4/17/21 83.9 1601 43.8 0633 0.00 4.75 2.0 11.6 1421 SW | 235 39.7 86 18 80.7 1616 48.4 0617 11.4 0410 -7.7 1422 - - - - - - - 12.4
4/16/21 83.3 1548 40.9 0636 0.00 4.75 2.1 14.0 1037 S | 176 37.1 84 17 78.9 1648 45.3 0634 12.7 0303 -8.4 1234 - - - - - - - 12.4
Max 100.0 - 56.9 - 0.09 - 2.8 19.3 - - 45.8 94 36 96.0 - 62.2 - 16.8 - -2.6 - 0.01 - 0.01 - 0.03 - 0.10 12.5
Avg - - - - - - 2.2 - - - 42.1 - - - - - - - - - - - - - - - - 0.10 -
Min 64.8 - 40.9 - 0.00 - 1.5 9.2 - - 35.8 68 7 63.7 - 43.9 - 5.7 - -8.4 - 0.01 - 0.01 - 0.01 - 0.10 12.4

Daily Bio-Meteorological Summary

Last 30 Days

Daily Data | America/Los_Angeles
as of 5/16/21 4:19 AM PDT
Date Daily Max Temp (°F) Daily Min Temp (°F) Daily Rain (In) GDDs (DL) GDDs (Mx/Mn) Seas GDDs (DL) Seas GDDs (Smpl) Chilling <=45F (hrs) Chill Hrs 32-45F (hrs) Utah Chilling (Units) Chill Portions Hrs 70-85F (hrs) Hrs > 95F (hrs) Powdery Mildew Stress (pts) Bee Hrs Today (Hrs) Hrs <= 32F (hrs) Hrs <= 28F (hrs)
5/15/21 84.4 55.1 0.00 19.3 19.7 747 756 0.0 0.0 -15.0 - 10.39 0.00 20 13.5 0.0 0.0
5/14/21 96.6 52.8 0.00 24.9 24.7 728 737 0.0 0.0 -17.5 - 2.72 0.76 0 12.8 0.0 0.0
5/13/21 98.3 53.1 0.00 25.5 25.7 703 712 0.0 0.0 -16.5 - 2.52 3.01 0 12.8 0.0 0.0
5/12/21 100.0 52.6 0.00 26.3 26.3 677 686 0.0 0.0 -16.5 - 1.77 5.05 10 12.8 0.0 0.0
5/11/21 95.8 54.1 0.00 24.6 24.9 651 660 0.0 0.0 -17.0 - 2.40 0.47 20 13.0 0.0 0.0
5/10/21 90.9 50.0 0.00 20.9 20.4 626 635 0.0 0.0 -14.0 - 4.23 0.00 30 12.6 0.0 0.0
5/9/21 90.2 51.0 0.00 20.5 20.6 606 615 0.0 0.0 0.0 - 4.27 0.00 40 12.6 0.0 0.0
5/8/21 88.0 48.7 0.00 17.9 18.4 585 594 0.0 0.0 0.0 - 5.82 0.00 50 12.5 0.0 0.0
5/7/21 86.5 54.2 0.00 18.4 20.4 567 576 0.0 0.0 0.0 - 9.65 0.00 60 13.3 0.0 0.0
5/6/21 94.2 56.9 0.00 25.1 25.5 549 555 0.0 0.0 -17.5 - 5.10 0.00 40 13.2 0.0 0.0
5/5/21 99.1 54.7 0.00 28.0 26.9 524 530 0.0 0.0 -17.5 - 5.10 3.97 50 13.2 0.0 0.0
5/4/21 92.9 52.9 0.00 23.5 22.9 496 503 0.0 0.0 -17.0 - 2.58 0.00 60 12.6 0.0 0.0
5/3/21 88.9 49.7 0.00 20.2 19.3 472 480 0.0 0.0 -15.5 - 4.81 0.00 70 12.3 0.0 0.0
5/2/21 83.3 47.4 0.00 15.8 15.4 452 461 0.0 0.0 0.0 - 9.17 0.00 80 12.1 0.0 0.0
5/1/21 90.2 55.9 0.00 20.3 23.1 436 446 0.0 0.0 0.0 - 4.34 0.00 60 13.1 0.0 0.0
4/30/21 97.1 50.5 0.00 24.0 23.8 416 422 0.0 0.0 -15.0 - 1.98 1.76 70 12.3 0.0 0.0
4/29/21 95.1 46.9 0.00 20.7 21.0 392 399 0.0 0.0 0.0 73 3.03 0.00 80 12.0 0.0 0.0
4/28/21 85.4 42.4 0.00 15.4 13.9 371 378 3.3 3.3 0.0 73 10.02 0.00 90 11.6 0.0 0.0
4/27/21 73.9 41.9 0.00 8.9 7.9 356 364 4.9 4.9 0.0 73 4.02 0.00 70 10.1 0.0 0.0
4/26/21 70.6 46.5 0.09 6.3 8.5 347 356 0.0 0.0 -3.0 72 0.10 0.00 80 8.9 0.0 0.0
4/25/21 64.8 51.1 0.01 6.4 7.9 340 347 0.0 0.0 2.5 72 0.00 0.00 90 11.9 0.0 0.0
4/24/21 79.4 48.2 0.00 13.0 13.8 334 339 0.0 0.0 0.0 72 7.90 0.00 100 11.7 0.0 0.0
4/23/21 82.6 46.6 0.00 14.0 14.6 321 326 0.0 0.0 0.0 72 9.00 0.00 100 11.2 0.0 0.0
4/22/21 82.8 53.0 0.00 16.4 17.9 307 311 0.0 0.0 0.5 72 9.59 0.00 100 12.7 0.0 0.0
4/21/21 76.7 47.0 0.00 11.6 11.8 291 293 0.0 0.0 0.0 72 6.04 0.00 100 11.0 0.0 0.0
4/20/21 86.3 47.7 0.00 16.6 17.0 279 281 0.0 0.0 0.0 72 9.85 0.00 100 11.6 0.0 0.0
4/19/21 90.2 45.5 0.00 18.3 17.9 262 264 0.0 0.0 0.0 72 3.28 0.00 80 11.6 0.0 0.0
4/18/21 89.5 46.2 0.00 17.8 17.9 244 246 0.0 0.0 0.5 72 4.50 0.00 90 11.6 0.0 0.0
4/17/21 83.9 43.8 0.00 15.8 13.8 226 228 1.5 1.5 -14.0 72 9.65 0.00 100 11.2 0.0 0.0
4/16/21 83.3 40.9 0.00 13.4 12.1 210 215 4.2 4.2 1.0 72 9.11 0.00 100 11.1 0.0 0.0
Max 100.0 56.9 0.09 28.0 26.9 - - 4.9 4.9 2.5 73 10.39 5.05 - 13.5 0.0 0.0
Avg - - - 18.3 18.5 - - 0.5 0.5 -6.4 72 5.43 0.50 - 12.1 0.0 0.0
Min 64.8 40.9 0.00 6.3 7.9 - - 0.0 0.0 -17.5 72 0.00 0.00 - 8.9 0.0 0.0
Total - - - 549.9 554.0 - - 13.8 13.8 -191.5 - 162.96 15.01 - 363.0 0.0 0.0

Climate Summary

Lindcove R.E.C.

Current Year | Showing 1/1/21 - 5/15/21
as of 5/16/21 4:19 AM PDT
Temperature (°F) Precip (in) Days
Month Days Avg Max Avg Min Max Max Min Min Total Daily Min Temp < 28 Daily Min Temp < 32 Daily Max Temp > 90 Daily Max Temp > 100 Daily Rain > 0.01 Daily Rain > 0.1
Jan 2021 31 64.3 35.6 76.4 30 1.77 0 2 0 0 7 4
Feb 2021 28 68.4 37.3 79.3 32.3 0.74 0 0 0 0 2 2
Mar 2021 31 71.1 39.2 86.7 32.8 1.23 0 0 0 0 4 4
Apr 2021 30 82.7 45.4 97.1 40.6 0.1 0 0 5 0 1 0
May 2021 15 92 52.6 100 47.4 0 0 0 10 0 0 0
Total 135 - - - - 3.84 0 2 15 0 14 10
Average 27 75.7 42 - - 0.77 0 0.4 3 0 2.8 2
Maximum 31 92 52.6 100 - 1.77 0 2 10 0 7 4
Minimum 15 64.3 35.6 - 30 0 0 0 0 0 0 0

Climate Summary

Lindcove R.E.C.

Last Year | Showing 1/1/20 - 12/31/20
as of 5/16/21 4:19 AM PDT
Temperature (°F) Precip (in) Days
Month Days Avg Max Avg Min Max Max Min Min Total Daily Min Temp < 28 Daily Min Temp < 32 Daily Max Temp > 90 Daily Max Temp > 100 Daily Rain > 0.01 Daily Rain > 0.1
Jan 2020 31 60.7 37.8 69.2 31.5 0.56 0 2 0 0 1 1
Feb 2020 29 72.1 36.3 86.4 26.9 0.34 2 7 0 0 1 1
Mar 2020 31 69.6 42.1 87.1 33.2 2.19 0 0 0 0 9 6
Apr 2020 30 77.4 49.8 95.7 37.2 2.4 0 0 4 0 7 6
May 2020 31 89.7 53.9 108.2 45.3 0.38 0 0 12 6 1 1
Jun 2020 30 95.8 59.8 107.5 47.1 0 0 0 20 13 0 0
Jul 2020 31 101.3 62.7 108.7 55.4 0.1 0 0 31 19 2 0
Aug 2020 31 101.6 65.7 111 58.9 0 0 0 31 22 0 0
Sep 2020 30 93.3 59.5 107.3 53.3 0 0 0 20 4 0 0
Oct 2020 31 87.9 50.4 98.4 37.1 0 0 0 12 0 0 0
Nov 2020 30 69.7 37.9 86.3 29 0.44 0 6 0 0 2 2
Dec 2020 31 63.6 33.5 77.9 28.5 0.57 0 15 0 0 6 2
Total 366 - - - - 6.98 2 30 130 64 29 19
Average 30.5 81.9 49.1 - - 0.58 0.2 2.5 10.8 5.3 2.4 1.6
Maximum 31 101.6 65.7 111 - 2.4 2 15 31 22 9 6
Minimum 29 60.7 33.5 - 26.9 0 0 0 0 0 0 0
Calm: 0.0%
Calm: 0.0%